sensor_id;sensor_type;location;lat;lon;timestamp;P1;durP1;ratioP1;P2;durP2;ratioP2
7330;SDS011;3706;49.198;7.064;2024-02-15T00:02:07;5.10;;;3.90;;
7330;SDS011;3706;49.198;7.064;2024-02-15T00:04:42;4.60;;;3.60;;
7330;SDS011;3706;49.198;7.064;2024-02-15T00:07:21;5.40;;;3.50;;
7330;SDS011;3706;49.198;7.064;2024-02-15T00:09:51;6.80;;;3.73;;
7330;SDS011;3706;49.198;7.064;2024-02-15T00:12:24;9.67;;;3.90;;
7330;SDS011;3706;49.198;7.064;2024-02-15T00:14:56;10.10;;;3.23;;
7330;SDS011;3706;49.198;7.064;2024-02-15T00:17:31;4.40;;;3.10;;
7330;SDS011;3706;49.198;7.064;2024-02-15T00:20:00;5.50;;;3.23;;
7330;SDS011;3706;49.198;7.064;2024-02-15T00:22:37;5.40;;;3.07;;
7330;SDS011;3706;49.198;7.064;2024-02-15T00:25:16;6.20;;;3.50;;
7330;SDS011;3706;49.198;7.064;2024-02-15T00:27:45;6.50;;;3.60;;
7330;SDS011;3706;49.198;7.064;2024-02-15T00:30:13;6.30;;;3.00;;
7330;SDS011;3706;49.198;7.064;2024-02-15T00:32:44;6.23;;;3.20;;
7330;SDS011;3706;49.198;7.064;2024-02-15T00:35:17;8.57;;;3.50;;
7330;SDS011;3706;49.198;7.064;2024-02-15T00:37:52;8.73;;;3.77;;
7330;SDS011;3706;49.198;7.064;2024-02-15T00:40:23;5.53;;;3.53;;
7330;SDS011;3706;49.198;7.064;2024-02-15T00:42:53;5.57;;;3.10;;
7330;SDS011;3706;49.198;7.064;2024-02-15T00:45:35;8.03;;;3.83;;
7330;SDS011;3706;49.198;7.064;2024-02-15T00:48:09;8.23;;;3.30;;
7330;SDS011;3706;49.198;7.064;2024-02-15T00:50:39;5.97;;;3.47;;
7330;SDS011;3706;49.198;7.064;2024-02-15T00:53:07;6.10;;;3.40;;
7330;SDS011;3706;49.198;7.064;2024-02-15T00:55:38;5.47;;;3.40;;
7330;SDS011;3706;49.198;7.064;2024-02-15T00:58:09;5.03;;;3.13;;
7330;SDS011;3706;49.198;7.064;2024-02-15T01:00:41;6.87;;;3.70;;
7330;SDS011;3706;49.198;7.064;2024-02-15T01:03:14;6.20;;;3.67;;
7330;SDS011;3706;49.198;7.064;2024-02-15T01:05:42;4.27;;;3.13;;
7330;SDS011;3706;49.198;7.064;2024-02-15T01:08:12;5.77;;;3.47;;
7330;SDS011;3706;49.198;7.064;2024-02-15T01:10:42;4.07;;;3.10;;
7330;SDS011;3706;49.198;7.064;2024-02-15T01:13:11;6.60;;;3.60;;
7330;SDS011;3706;49.198;7.064;2024-02-15T01:15:50;7.27;;;3.40;;
7330;SDS011;3706;49.198;7.064;2024-02-15T01:18:33;6.17;;;3.10;;
7330;SDS011;3706;49.198;7.064;2024-02-15T01:21:03;5.63;;;3.33;;
7330;SDS011;3706;49.198;7.064;2024-02-15T01:23:31;5.40;;;3.47;;
7330;SDS011;3706;49.198;7.064;2024-02-15T01:26:00;4.80;;;2.70;;
7330;SDS011;3706;49.198;7.064;2024-02-15T01:28:27;5.50;;;2.83;;
7330;SDS011;3706;49.198;7.064;2024-02-15T01:30:57;7.63;;;3.03;;
7330;SDS011;3706;49.198;7.064;2024-02-15T01:33:27;7.03;;;2.80;;
7330;SDS011;3706;49.198;7.064;2024-02-15T01:35:58;6.97;;;3.20;;
7330;SDS011;3706;49.198;7.064;2024-02-15T01:38:30;7.53;;;3.17;;
7330;SDS011;3706;49.198;7.064;2024-02-15T01:41:06;5.63;;;2.97;;
7330;SDS011;3706;49.198;7.064;2024-02-15T01:43:43;9.43;;;3.50;;
7330;SDS011;3706;49.198;7.064;2024-02-15T01:46:15;6.47;;;3.27;;
7330;SDS011;3706;49.198;7.064;2024-02-15T01:48:44;7.00;;;3.47;;
7330;SDS011;3706;49.198;7.064;2024-02-15T01:51:14;5.50;;;3.40;;
7330;SDS011;3706;49.198;7.064;2024-02-15T01:53:43;4.33;;;2.80;;
7330;SDS011;3706;49.198;7.064;2024-02-15T01:56:12;5.63;;;2.90;;
7330;SDS011;3706;49.198;7.064;2024-02-15T01:58:44;6.83;;;3.50;;
7330;SDS011;3706;49.198;7.064;2024-02-15T02:01:20;6.87;;;3.17;;
7330;SDS011;3706;49.198;7.064;2024-02-15T02:03:48;4.73;;;3.40;;
7330;SDS011;3706;49.198;7.064;2024-02-15T02:06:19;4.90;;;2.40;;
7330;SDS011;3706;49.198;7.064;2024-02-15T02:08:51;4.53;;;2.90;;
7330;SDS011;3706;49.198;7.064;2024-02-15T02:11:27;6.60;;;3.30;;
7330;SDS011;3706;49.198;7.064;2024-02-15T02:13:59;5.63;;;3.20;;
7330;SDS011;3706;49.198;7.064;2024-02-15T02:16:39;5.90;;;2.80;;
7330;SDS011;3706;49.198;7.064;2024-02-15T02:19:11;5.80;;;3.50;;
7330;SDS011;3706;49.198;7.064;2024-02-15T02:21:44;6.10;;;3.33;;
7330;SDS011;3706;49.198;7.064;2024-02-15T02:24:12;4.30;;;3.30;;
7330;SDS011;3706;49.198;7.064;2024-02-15T02:26:48;8.13;;;4.03;;
7330;SDS011;3706;49.198;7.064;2024-02-15T02:29:25;8.03;;;3.70;;
7330;SDS011;3706;49.198;7.064;2024-02-15T02:31:56;8.53;;;3.60;;
7330;SDS011;3706;49.198;7.064;2024-02-15T02:34:25;7.80;;;3.40;;
7330;SDS011;3706;49.198;7.064;2024-02-15T02:36:55;5.70;;;3.20;;
7330;SDS011;3706;49.198;7.064;2024-02-15T02:39:33;4.50;;;2.83;;
7330;SDS011;3706;49.198;7.064;2024-02-15T02:42:12;6.77;;;3.63;;
7330;SDS011;3706;49.198;7.064;2024-02-15T02:44:40;5.80;;;3.00;;
7330;SDS011;3706;49.198;7.064;2024-02-15T02:47:14;6.17;;;3.13;;
7330;SDS011;3706;49.198;7.064;2024-02-15T02:49:44;4.87;;;3.20;;
7330;SDS011;3706;49.198;7.064;2024-02-15T02:52:14;4.13;;;3.43;;
7330;SDS011;3706;49.198;7.064;2024-02-15T02:54:46;5.80;;;3.30;;
7330;SDS011;3706;49.198;7.064;2024-02-15T02:57:17;6.23;;;3.00;;
7330;SDS011;3706;49.198;7.064;2024-02-15T02:59:49;5.73;;;3.33;;
7330;SDS011;3706;49.198;7.064;2024-02-15T03:02:22;5.07;;;2.60;;
7330;SDS011;3706;49.198;7.064;2024-02-15T03:04:51;4.43;;;2.50;;
7330;SDS011;3706;49.198;7.064;2024-02-15T03:07:25;5.93;;;3.67;;
7330;SDS011;3706;49.198;7.064;2024-02-15T03:09:55;5.97;;;3.40;;
7330;SDS011;3706;49.198;7.064;2024-02-15T03:12:37;7.27;;;3.13;;
7330;SDS011;3706;49.198;7.064;2024-02-15T03:15:12;6.40;;;2.97;;
7330;SDS011;3706;49.198;7.064;2024-02-15T03:17:45;6.00;;;3.17;;
7330;SDS011;3706;49.198;7.064;2024-02-15T03:20:16;4.67;;;3.10;;
7330;SDS011;3706;49.198;7.064;2024-02-15T03:22:51;5.73;;;3.07;;
7330;SDS011;3706;49.198;7.064;2024-02-15T03:25:22;5.20;;;3.10;;
7330;SDS011;3706;49.198;7.064;2024-02-15T03:27:55;6.27;;;3.03;;
7330;SDS011;3706;49.198;7.064;2024-02-15T03:30:24;3.50;;;2.80;;
7330;SDS011;3706;49.198;7.064;2024-02-15T03:32:52;5.10;;;3.13;;
7330;SDS011;3706;49.198;7.064;2024-02-15T03:35:25;8.53;;;3.50;;
7330;SDS011;3706;49.198;7.064;2024-02-15T03:37:53;6.27;;;3.30;;
7330;SDS011;3706;49.198;7.064;2024-02-15T03:40:24;7.10;;;3.30;;
7330;SDS011;3706;49.198;7.064;2024-02-15T03:42:53;5.40;;;3.30;;
7330;SDS011;3706;49.198;7.064;2024-02-15T03:45:31;6.00;;;3.30;;
7330;SDS011;3706;49.198;7.064;2024-02-15T03:48:24;5.87;;;3.10;;
7330;SDS011;3706;49.198;7.064;2024-02-15T03:51:05;7.03;;;3.20;;
7330;SDS011;3706;49.198;7.064;2024-02-15T03:53:35;5.20;;;2.90;;
7330;SDS011;3706;49.198;7.064;2024-02-15T03:56:12;10.13;;;3.47;;
7330;SDS011;3706;49.198;7.064;2024-02-15T03:58:44;3.37;;;2.43;;
7330;SDS011;3706;49.198;7.064;2024-02-15T04:01:14;4.60;;;2.87;;
7330;SDS011;3706;49.198;7.064;2024-02-15T04:03:50;6.90;;;3.70;;
7330;SDS011;3706;49.198;7.064;2024-02-15T04:06:18;4.23;;;2.87;;
7330;SDS011;3706;49.198;7.064;2024-02-15T04:08:58;3.97;;;3.37;;
7330;SDS011;3706;49.198;7.064;2024-02-15T04:11:30;3.53;;;2.60;;
7330;SDS011;3706;49.198;7.064;2024-02-15T04:14:04;10.50;;;3.67;;
7330;SDS011;3706;49.198;7.064;2024-02-15T04:16:36;4.30;;;2.93;;
7330;SDS011;3706;49.198;7.064;2024-02-15T04:19:13;6.63;;;3.53;;
7330;SDS011;3706;49.198;7.064;2024-02-15T04:21:59;6.23;;;2.73;;
7330;SDS011;3706;49.198;7.064;2024-02-15T04:24:32;7.57;;;3.77;;
7330;SDS011;3706;49.198;7.064;2024-02-15T04:27:05;5.10;;;3.47;;
7330;SDS011;3706;49.198;7.064;2024-02-15T04:29:34;5.77;;;3.40;;
7330;SDS011;3706;49.198;7.064;2024-02-15T04:32:06;5.47;;;3.60;;
7330;SDS011;3706;49.198;7.064;2024-02-15T04:34:35;6.93;;;3.47;;
7330;SDS011;3706;49.198;7.064;2024-02-15T04:37:13;4.00;;;2.60;;
7330;SDS011;3706;49.198;7.064;2024-02-15T04:39:45;8.00;;;3.17;;
7330;SDS011;3706;49.198;7.064;2024-02-15T04:42:20;7.10;;;3.60;;
7330;SDS011;3706;49.198;7.064;2024-02-15T04:44:54;4.37;;;2.97;;
7330;SDS011;3706;49.198;7.064;2024-02-15T04:47:21;6.27;;;3.03;;
7330;SDS011;3706;49.198;7.064;2024-02-15T04:49:48;5.77;;;3.73;;
7330;SDS011;3706;49.198;7.064;2024-02-15T04:52:15;6.97;;;3.10;;
7330;SDS011;3706;49.198;7.064;2024-02-15T04:54:49;7.20;;;3.67;;
7330;SDS011;3706;49.198;7.064;2024-02-15T04:57:19;8.60;;;3.90;;
7330;SDS011;3706;49.198;7.064;2024-02-15T04:59:50;7.93;;;3.87;;
7330;SDS011;3706;49.198;7.064;2024-02-15T05:02:20;6.73;;;4.10;;
7330;SDS011;3706;49.198;7.064;2024-02-15T05:04:53;6.43;;;3.77;;
7330;SDS011;3706;49.198;7.064;2024-02-15T05:07:27;4.63;;;2.93;;
7330;SDS011;3706;49.198;7.064;2024-02-15T05:10:04;7.23;;;3.30;;
7330;SDS011;3706;49.198;7.064;2024-02-15T05:12:37;4.57;;;2.90;;
7330;SDS011;3706;49.198;7.064;2024-02-15T05:15:13;4.60;;;3.60;;
7330;SDS011;3706;49.198;7.064;2024-02-15T05:17:59;4.50;;;3.60;;
7330;SDS011;3706;49.198;7.064;2024-02-15T05:20:29;6.63;;;4.00;;
7330;SDS011;3706;49.198;7.064;2024-02-15T05:23:00;8.50;;;3.33;;
7330;SDS011;3706;49.198;7.064;2024-02-15T05:25:41;6.03;;;3.33;;
7330;SDS011;3706;49.198;7.064;2024-02-15T05:28:13;6.07;;;3.60;;
7330;SDS011;3706;49.198;7.064;2024-02-15T05:30:51;6.70;;;4.03;;
7330;SDS011;3706;49.198;7.064;2024-02-15T05:33:44;5.03;;;4.20;;
7330;SDS011;3706;49.198;7.064;2024-02-15T05:36:15;9.70;;;4.10;;
7330;SDS011;3706;49.198;7.064;2024-02-15T05:38:45;6.83;;;4.40;;
7330;SDS011;3706;49.198;7.064;2024-02-15T05:41:16;22.13;;;11.27;;
7330;SDS011;3706;49.198;7.064;2024-02-15T05:43:44;69.63;;;30.30;;
7330;SDS011;3706;49.198;7.064;2024-02-15T05:46:15;101.47;;;47.93;;
7330;SDS011;3706;49.198;7.064;2024-02-15T05:48:50;30.27;;;17.27;;
7330;SDS011;3706;49.198;7.064;2024-02-15T05:51:21;38.87;;;20.07;;
7330;SDS011;3706;49.198;7.064;2024-02-15T05:53:58;26.70;;;14.87;;
7330;SDS011;3706;49.198;7.064;2024-02-15T05:56:32;17.23;;;11.07;;
7330;SDS011;3706;49.198;7.064;2024-02-15T05:59:05;16.47;;;8.97;;
7330;SDS011;3706;49.198;7.064;2024-02-15T06:01:35;18.17;;;11.00;;
7330;SDS011;3706;49.198;7.064;2024-02-15T06:04:09;17.87;;;9.90;;
7330;SDS011;3706;49.198;7.064;2024-02-15T06:06:40;15.97;;;10.20;;
7330;SDS011;3706;49.198;7.064;2024-02-15T06:09:23;17.70;;;10.00;;
7330;SDS011;3706;49.198;7.064;2024-02-15T06:12:01;17.23;;;8.60;;
7330;SDS011;3706;49.198;7.064;2024-02-15T06:14:37;8.37;;;5.90;;
7330;SDS011;3706;49.198;7.064;2024-02-15T06:17:18;15.47;;;7.73;;
7330;SDS011;3706;49.198;7.064;2024-02-15T06:19:57;11.53;;;7.63;;
7330;SDS011;3706;49.198;7.064;2024-02-15T06:22:28;14.27;;;6.80;;
7330;SDS011;3706;49.198;7.064;2024-02-15T06:24:58;19.57;;;8.83;;
7330;SDS011;3706;49.198;7.064;2024-02-15T06:27:28;12.33;;;7.20;;
7330;SDS011;3706;49.198;7.064;2024-02-15T06:30:07;14.47;;;7.87;;
7330;SDS011;3706;49.198;7.064;2024-02-15T06:32:52;13.67;;;7.40;;
7330;SDS011;3706;49.198;7.064;2024-02-15T06:35:38;13.00;;;7.73;;
7330;SDS011;3706;49.198;7.064;2024-02-15T06:38:26;17.87;;;8.63;;
7330;SDS011;3706;49.198;7.064;2024-02-15T06:41:17;12.07;;;6.90;;
7330;SDS011;3706;49.198;7.064;2024-02-15T06:44:06;14.10;;;6.63;;
7330;SDS011;3706;49.198;7.064;2024-02-15T06:46:37;15.50;;;8.67;;
7330;SDS011;3706;49.198;7.064;2024-02-15T06:49:15;14.83;;;7.90;;
7330;SDS011;3706;49.198;7.064;2024-02-15T06:51:48;16.00;;;9.67;;
7330;SDS011;3706;49.198;7.064;2024-02-15T06:54:22;13.27;;;8.70;;
7330;SDS011;3706;49.198;7.064;2024-02-15T06:56:51;11.33;;;5.03;;
7330;SDS011;3706;49.198;7.064;2024-02-15T06:59:31;9.83;;;6.70;;
7330;SDS011;3706;49.198;7.064;2024-02-15T07:02:03;10.67;;;6.20;;
7330;SDS011;3706;49.198;7.064;2024-02-15T07:04:35;10.00;;;6.10;;
7330;SDS011;3706;49.198;7.064;2024-02-15T07:07:04;12.57;;;7.33;;
7330;SDS011;3706;49.198;7.064;2024-02-15T07:09:34;16.17;;;10.53;;
7330;SDS011;3706;49.198;7.064;2024-02-15T07:12:01;21.03;;;12.43;;
7330;SDS011;3706;49.198;7.064;2024-02-15T07:14:32;18.57;;;11.17;;
7330;SDS011;3706;49.198;7.064;2024-02-15T07:17:02;15.13;;;9.60;;
7330;SDS011;3706;49.198;7.064;2024-02-15T07:19:34;14.03;;;9.60;;
7330;SDS011;3706;49.198;7.064;2024-02-15T07:22:06;17.27;;;9.93;;
7330;SDS011;3706;49.198;7.064;2024-02-15T07:27:29;15.50;;;10.87;;
7330;SDS011;3706;49.198;7.064;2024-02-15T07:30:14;18.57;;;11.70;;
7330;SDS011;3706;49.198;7.064;2024-02-15T07:32:47;10.70;;;6.93;;
7330;SDS011;3706;49.198;7.064;2024-02-15T07:35:15;10.20;;;7.70;;
7330;SDS011;3706;49.198;7.064;2024-02-15T07:37:53;10.87;;;6.37;;
7330;SDS011;3706;49.198;7.064;2024-02-15T07:40:23;9.10;;;6.73;;
7330;SDS011;3706;49.198;7.064;2024-02-15T07:42:54;7.23;;;5.40;;
7330;SDS011;3706;49.198;7.064;2024-02-15T07:45:24;12.97;;;6.53;;
7330;SDS011;3706;49.198;7.064;2024-02-15T07:47:51;11.50;;;6.37;;
7330;SDS011;3706;49.198;7.064;2024-02-15T07:50:22;6.43;;;5.17;;
7330;SDS011;3706;49.198;7.064;2024-02-15T07:52:53;8.33;;;6.63;;
7330;SDS011;3706;49.198;7.064;2024-02-15T07:55:23;8.57;;;5.77;;
7330;SDS011;3706;49.198;7.064;2024-02-15T07:57:53;10.97;;;7.13;;
7330;SDS011;3706;49.198;7.064;2024-02-15T08:00:22;5.90;;;4.80;;
7330;SDS011;3706;49.198;7.064;2024-02-15T08:02:53;9.70;;;6.00;;
7330;SDS011;3706;49.198;7.064;2024-02-15T08:05:22;10.83;;;6.70;;
7330;SDS011;3706;49.198;7.064;2024-02-15T08:07:49;8.53;;;6.40;;
7330;SDS011;3706;49.198;7.064;2024-02-15T08:10:20;10.17;;;6.10;;
7330;SDS011;3706;49.198;7.064;2024-02-15T08:12:53;8.50;;;5.27;;
7330;SDS011;3706;49.198;7.064;2024-02-15T08:15:23;9.73;;;5.67;;
7330;SDS011;3706;49.198;7.064;2024-02-15T08:17:53;9.93;;;6.40;;
7330;SDS011;3706;49.198;7.064;2024-02-15T08:20:34;8.00;;;5.10;;
7330;SDS011;3706;49.198;7.064;2024-02-15T08:23:24;7.37;;;5.17;;
7330;SDS011;3706;49.198;7.064;2024-02-15T08:26:04;7.93;;;5.50;;
7330;SDS011;3706;49.198;7.064;2024-02-15T08:28:43;7.17;;;4.40;;
7330;SDS011;3706;49.198;7.064;2024-02-15T08:31:20;7.97;;;5.13;;
7330;SDS011;3706;49.198;7.064;2024-02-15T08:33:48;6.70;;;4.67;;
7330;SDS011;3706;49.198;7.064;2024-02-15T08:36:15;6.37;;;3.90;;
7330;SDS011;3706;49.198;7.064;2024-02-15T08:38:49;4.07;;;3.30;;
7330;SDS011;3706;49.198;7.064;2024-02-15T08:41:24;7.90;;;4.40;;
7330;SDS011;3706;49.198;7.064;2024-02-15T08:43:58;5.13;;;3.10;;
7330;SDS011;3706;49.198;7.064;2024-02-15T08:46:44;5.33;;;3.67;;
7330;SDS011;3706;49.198;7.064;2024-02-15T08:49:15;4.87;;;3.50;;
7330;SDS011;3706;49.198;7.064;2024-02-15T08:51:56;6.67;;;3.87;;
7330;SDS011;3706;49.198;7.064;2024-02-15T08:54:25;7.00;;;3.30;;
7330;SDS011;3706;49.198;7.064;2024-02-15T08:56:59;5.57;;;3.87;;
7330;SDS011;3706;49.198;7.064;2024-02-15T08:59:37;3.80;;;3.00;;
7330;SDS011;3706;49.198;7.064;2024-02-15T09:02:09;6.23;;;2.80;;
7330;SDS011;3706;49.198;7.064;2024-02-15T09:04:43;4.60;;;2.70;;
7330;SDS011;3706;49.198;7.064;2024-02-15T09:07:25;6.93;;;3.27;;
7330;SDS011;3706;49.198;7.064;2024-02-15T09:09:58;9.10;;;3.07;;
7330;SDS011;3706;49.198;7.064;2024-02-15T09:12:39;6.03;;;2.77;;
7330;SDS011;3706;49.198;7.064;2024-02-15T09:15:07;4.77;;;2.60;;
7330;SDS011;3706;49.198;7.064;2024-02-15T09:17:39;5.10;;;2.03;;
7330;SDS011;3706;49.198;7.064;2024-02-15T09:20:10;7.87;;;2.17;;
7330;SDS011;3706;49.198;7.064;2024-02-15T09:22:47;4.13;;;2.27;;
7330;SDS011;3706;49.198;7.064;2024-02-15T09:25:17;2.63;;;1.87;;
7330;SDS011;3706;49.198;7.064;2024-02-15T09:27:46;4.20;;;2.10;;
7330;SDS011;3706;49.198;7.064;2024-02-15T09:30:14;4.30;;;2.10;;
7330;SDS011;3706;49.198;7.064;2024-02-15T09:32:41;3.37;;;1.87;;
7330;SDS011;3706;49.198;7.064;2024-02-15T09:35:09;3.30;;;1.80;;
7330;SDS011;3706;49.198;7.064;2024-02-15T09:37:37;3.20;;;1.67;;
7330;SDS011;3706;49.198;7.064;2024-02-15T09:40:09;4.53;;;1.90;;
7330;SDS011;3706;49.198;7.064;2024-02-15T09:42:37;3.17;;;1.70;;
7330;SDS011;3706;49.198;7.064;2024-02-15T09:45:06;2.97;;;1.47;;
7330;SDS011;3706;49.198;7.064;2024-02-15T09:47:36;3.07;;;2.00;;
7330;SDS011;3706;49.198;7.064;2024-02-15T09:50:05;4.37;;;2.10;;
7330;SDS011;3706;49.198;7.064;2024-02-15T09:52:33;2.33;;;1.60;;
7330;SDS011;3706;49.198;7.064;2024-02-15T09:55:02;4.03;;;1.77;;
7330;SDS011;3706;49.198;7.064;2024-02-15T09:57:29;2.17;;;1.60;;
7330;SDS011;3706;49.198;7.064;2024-02-15T09:59:58;3.50;;;1.40;;
7330;SDS011;3706;49.198;7.064;2024-02-15T10:02:36;4.77;;;1.30;;
7330;SDS011;3706;49.198;7.064;2024-02-15T10:05:05;3.93;;;1.70;;
7330;SDS011;3706;49.198;7.064;2024-02-15T10:07:36;4.47;;;1.80;;
7330;SDS011;3706;49.198;7.064;2024-02-15T10:10:14;2.20;;;1.13;;
7330;SDS011;3706;49.198;7.064;2024-02-15T10:12:42;3.70;;;1.43;;
7330;SDS011;3706;49.198;7.064;2024-02-15T10:15:33;3.13;;;1.43;;
7330;SDS011;3706;49.198;7.064;2024-02-15T10:18:07;3.77;;;1.43;;
7330;SDS011;3706;49.198;7.064;2024-02-15T10:20:37;1.97;;;1.37;;
7330;SDS011;3706;49.198;7.064;2024-02-15T10:23:09;3.33;;;1.83;;
7330;SDS011;3706;49.198;7.064;2024-02-15T10:25:42;3.43;;;1.23;;
7330;SDS011;3706;49.198;7.064;2024-02-15T10:28:10;2.60;;;1.50;;
7330;SDS011;3706;49.198;7.064;2024-02-15T10:30:41;4.23;;;1.40;;
7330;SDS011;3706;49.198;7.064;2024-02-15T10:33:17;4.07;;;1.60;;
7330;SDS011;3706;49.198;7.064;2024-02-15T10:35:46;1.70;;;1.17;;
7330;SDS011;3706;49.198;7.064;2024-02-15T10:38:14;3.77;;;1.60;;
7330;SDS011;3706;49.198;7.064;2024-02-15T10:40:44;5.20;;;1.80;;
7330;SDS011;3706;49.198;7.064;2024-02-15T10:43:12;3.83;;;1.40;;
7330;SDS011;3706;49.198;7.064;2024-02-15T10:45:42;4.17;;;1.30;;
7330;SDS011;3706;49.198;7.064;2024-02-15T10:48:10;4.07;;;1.50;;
7330;SDS011;3706;49.198;7.064;2024-02-15T10:50:39;6.27;;;1.57;;
7330;SDS011;3706;49.198;7.064;2024-02-15T10:53:08;2.07;;;1.27;;
7330;SDS011;3706;49.198;7.064;2024-02-15T10:55:40;2.67;;;1.50;;
7330;SDS011;3706;49.198;7.064;2024-02-15T10:58:16;1.53;;;1.20;;
7330;SDS011;3706;49.198;7.064;2024-02-15T11:00:46;1.67;;;1.33;;
7330;SDS011;3706;49.198;7.064;2024-02-15T11:03:19;4.40;;;1.50;;
7330;SDS011;3706;49.198;7.064;2024-02-15T11:05:51;4.47;;;1.97;;
7330;SDS011;3706;49.198;7.064;2024-02-15T11:08:21;1.70;;;1.33;;
7330;SDS011;3706;49.198;7.064;2024-02-15T11:10:48;1.73;;;1.27;;
7330;SDS011;3706;49.198;7.064;2024-02-15T11:13:16;2.50;;;1.60;;
7330;SDS011;3706;49.198;7.064;2024-02-15T11:15:44;2.63;;;1.33;;
7330;SDS011;3706;49.198;7.064;2024-02-15T11:21:10;2.50;;;1.30;;
7330;SDS011;3706;49.198;7.064;2024-02-15T11:23:38;2.97;;;1.33;;
7330;SDS011;3706;49.198;7.064;2024-02-15T11:26:08;1.93;;;1.00;;
7330;SDS011;3706;49.198;7.064;2024-02-15T11:28:55;3.40;;;1.30;;
7330;SDS011;3706;49.198;7.064;2024-02-15T11:40:19;3.10;;;1.70;;
7330;SDS011;3706;49.198;7.064;2024-02-15T11:42:48;2.87;;;1.50;;
7330;SDS011;3706;49.198;7.064;2024-02-15T11:45:16;1.60;;;1.30;;
7330;SDS011;3706;49.198;7.064;2024-02-15T11:47:46;2.03;;;1.20;;
7330;SDS011;3706;49.198;7.064;2024-02-15T11:50:17;2.07;;;1.23;;
7330;SDS011;3706;49.198;7.064;2024-02-15T11:52:45;4.07;;;1.33;;
7330;SDS011;3706;49.198;7.064;2024-02-15T11:55:14;2.60;;;1.20;;
7330;SDS011;3706;49.198;7.064;2024-02-15T11:57:53;2.37;;;1.57;;
7330;SDS011;3706;49.198;7.064;2024-02-15T12:00:27;2.23;;;1.30;;
7330;SDS011;3706;49.198;7.064;2024-02-15T12:03:20;1.67;;;1.10;;
7330;SDS011;3706;49.198;7.064;2024-02-15T12:06:07;2.70;;;1.30;;
7330;SDS011;3706;49.198;7.064;2024-02-15T12:08:52;2.83;;;1.27;;
7330;SDS011;3706;49.198;7.064;2024-02-15T12:11:37;2.27;;;1.30;;
7330;SDS011;3706;49.198;7.064;2024-02-15T12:14:22;1.97;;;1.30;;
7330;SDS011;3706;49.198;7.064;2024-02-15T12:17:08;3.87;;;1.20;;
7330;SDS011;3706;49.198;7.064;2024-02-15T12:19:54;1.43;;;1.00;;
7330;SDS011;3706;49.198;7.064;2024-02-15T12:22:25;3.37;;;1.20;;
7330;SDS011;3706;49.198;7.064;2024-02-15T12:24:55;2.40;;;1.33;;
7330;SDS011;3706;49.198;7.064;2024-02-15T12:27:22;3.27;;;1.40;;
7330;SDS011;3706;49.198;7.064;2024-02-15T12:29:55;2.97;;;1.33;;
7330;SDS011;3706;49.198;7.064;2024-02-15T12:32:23;3.50;;;1.47;;
7330;SDS011;3706;49.198;7.064;2024-02-15T12:34:51;2.83;;;1.37;;
7330;SDS011;3706;49.198;7.064;2024-02-15T12:37:20;4.47;;;1.40;;
7330;SDS011;3706;49.198;7.064;2024-02-15T12:39:50;1.97;;;1.40;;
7330;SDS011;3706;49.198;7.064;2024-02-15T12:42:17;2.70;;;1.10;;
7330;SDS011;3706;49.198;7.064;2024-02-15T12:44:45;2.40;;;1.10;;
7330;SDS011;3706;49.198;7.064;2024-02-15T12:47:19;4.13;;;1.80;;
7330;SDS011;3706;49.198;7.064;2024-02-15T12:49:47;2.30;;;1.20;;
7330;SDS011;3706;49.198;7.064;2024-02-15T12:52:34;1.93;;;1.10;;
7330;SDS011;3706;49.198;7.064;2024-02-15T12:55:08;3.13;;;1.10;;
7330;SDS011;3706;49.198;7.064;2024-02-15T12:57:39;2.47;;;1.43;;
7330;SDS011;3706;49.198;7.064;2024-02-15T13:00:10;2.17;;;1.30;;
7330;SDS011;3706;49.198;7.064;2024-02-15T13:02:44;3.93;;;1.53;;
7330;SDS011;3706;49.198;7.064;2024-02-15T13:05:15;3.13;;;1.13;;
7330;SDS011;3706;49.198;7.064;2024-02-15T13:07:43;3.23;;;1.53;;
7330;SDS011;3706;49.198;7.064;2024-02-15T13:10:16;3.07;;;1.53;;
7330;SDS011;3706;49.198;7.064;2024-02-15T13:12:46;2.93;;;1.30;;
7330;SDS011;3706;49.198;7.064;2024-02-15T13:15:14;2.30;;;1.30;;
7330;SDS011;3706;49.198;7.064;2024-02-15T13:17:43;3.13;;;1.30;;
7330;SDS011;3706;49.198;7.064;2024-02-15T13:20:11;3.47;;;1.30;;
7330;SDS011;3706;49.198;7.064;2024-02-15T13:22:39;4.47;;;1.70;;
7330;SDS011;3706;49.198;7.064;2024-02-15T13:25:08;2.87;;;1.30;;
7330;SDS011;3706;49.198;7.064;2024-02-15T13:27:37;3.77;;;1.57;;
7330;SDS011;3706;49.198;7.064;2024-02-15T13:30:05;5.40;;;1.50;;
7330;SDS011;3706;49.198;7.064;2024-02-15T13:32:35;3.13;;;1.67;;
7330;SDS011;3706;49.198;7.064;2024-02-15T13:35:03;2.07;;;1.27;;
7330;SDS011;3706;49.198;7.064;2024-02-15T13:37:38;4.20;;;1.30;;
7330;SDS011;3706;49.198;7.064;2024-02-15T13:40:08;2.03;;;1.20;;
7330;SDS011;3706;49.198;7.064;2024-02-15T13:42:41;2.77;;;1.20;;
7330;SDS011;3706;49.198;7.064;2024-02-15T13:45:14;4.53;;;1.70;;
7330;SDS011;3706;49.198;7.064;2024-02-15T13:47:43;2.10;;;1.30;;
7330;SDS011;3706;49.198;7.064;2024-02-15T13:50:12;2.10;;;1.23;;
7330;SDS011;3706;49.198;7.064;2024-02-15T13:52:40;2.93;;;1.77;;
7330;SDS011;3706;49.198;7.064;2024-02-15T13:55:09;4.57;;;1.60;;
7330;SDS011;3706;49.198;7.064;2024-02-15T13:57:40;2.53;;;1.40;;
7330;SDS011;3706;49.198;7.064;2024-02-15T14:00:10;4.00;;;1.60;;
7330;SDS011;3706;49.198;7.064;2024-02-15T14:02:48;2.10;;;1.33;;
7330;SDS011;3706;49.198;7.064;2024-02-15T14:05:18;4.33;;;1.50;;
7330;SDS011;3706;49.198;7.064;2024-02-15T14:07:49;3.47;;;1.40;;
7330;SDS011;3706;49.198;7.064;2024-02-15T14:10:17;3.50;;;1.30;;
7330;SDS011;3706;49.198;7.064;2024-02-15T14:12:48;2.63;;;1.40;;
7330;SDS011;3706;49.198;7.064;2024-02-15T14:15:23;4.03;;;1.87;;
7330;SDS011;3706;49.198;7.064;2024-02-15T14:17:51;3.77;;;1.10;;
7330;SDS011;3706;49.198;7.064;2024-02-15T14:20:18;3.93;;;1.83;;
7330;SDS011;3706;49.198;7.064;2024-02-15T14:22:50;3.13;;;1.90;;
7330;SDS011;3706;49.198;7.064;2024-02-15T14:25:21;1.43;;;1.00;;
7330;SDS011;3706;49.198;7.064;2024-02-15T14:27:49;2.53;;;1.40;;
7330;SDS011;3706;49.198;7.064;2024-02-15T14:30:17;1.60;;;1.20;;
7330;SDS011;3706;49.198;7.064;2024-02-15T14:33:05;2.70;;;1.30;;
7330;SDS011;3706;49.198;7.064;2024-02-15T14:35:34;4.00;;;1.43;;
7330;SDS011;3706;49.198;7.064;2024-02-15T14:38:04;2.53;;;1.50;;
7330;SDS011;3706;49.198;7.064;2024-02-15T14:40:33;4.03;;;1.57;;
7330;SDS011;3706;49.198;7.064;2024-02-15T14:43:03;1.77;;;1.43;;
7330;SDS011;3706;49.198;7.064;2024-02-15T14:45:30;3.97;;;1.60;;
7330;SDS011;3706;49.198;7.064;2024-02-15T14:47:58;4.43;;;1.57;;
7330;SDS011;3706;49.198;7.064;2024-02-15T14:50:25;2.23;;;1.17;;
7330;SDS011;3706;49.198;7.064;2024-02-15T14:52:52;2.40;;;1.50;;
7330;SDS011;3706;49.198;7.064;2024-02-15T14:55:19;2.60;;;1.20;;
7330;SDS011;3706;49.198;7.064;2024-02-15T14:57:47;1.67;;;1.30;;
7330;SDS011;3706;49.198;7.064;2024-02-15T15:00:16;1.57;;;1.40;;
7330;SDS011;3706;49.198;7.064;2024-02-15T15:02:45;2.47;;;1.33;;
7330;SDS011;3706;49.198;7.064;2024-02-15T15:05:13;2.30;;;1.20;;
7330;SDS011;3706;49.198;7.064;2024-02-15T15:07:58;4.83;;;1.70;;
7330;SDS011;3706;49.198;7.064;2024-02-15T15:10:44;2.47;;;1.50;;
7330;SDS011;3706;49.198;7.064;2024-02-15T15:13:29;3.23;;;1.50;;
7330;SDS011;3706;49.198;7.064;2024-02-15T15:15:58;4.57;;;1.40;;
7330;SDS011;3706;49.198;7.064;2024-02-15T15:18:25;4.33;;;2.50;;
7330;SDS011;3706;49.198;7.064;2024-02-15T15:20:52;2.30;;;1.60;;
7330;SDS011;3706;49.198;7.064;2024-02-15T15:23:20;3.73;;;1.60;;
7330;SDS011;3706;49.198;7.064;2024-02-15T15:25:47;3.47;;;1.70;;
7330;SDS011;3706;49.198;7.064;2024-02-15T15:28:14;3.87;;;1.50;;
7330;SDS011;3706;49.198;7.064;2024-02-15T15:30:41;4.90;;;1.73;;
7330;SDS011;3706;49.198;7.064;2024-02-15T15:33:14;3.73;;;1.50;;
7330;SDS011;3706;49.198;7.064;2024-02-15T15:35:42;2.53;;;1.50;;
7330;SDS011;3706;49.198;7.064;2024-02-15T15:38:09;3.80;;;1.70;;
7330;SDS011;3706;49.198;7.064;2024-02-15T15:40:36;3.03;;;1.70;;
7330;SDS011;3706;49.198;7.064;2024-02-15T15:43:03;2.80;;;1.47;;
7330;SDS011;3706;49.198;7.064;2024-02-15T15:45:32;2.53;;;1.50;;
7330;SDS011;3706;49.198;7.064;2024-02-15T15:47:59;3.83;;;1.70;;
7330;SDS011;3706;49.198;7.064;2024-02-15T15:50:28;3.33;;;1.60;;
7330;SDS011;3706;49.198;7.064;2024-02-15T15:53:00;3.20;;;1.50;;
7330;SDS011;3706;49.198;7.064;2024-02-15T15:55:27;2.57;;;1.90;;
7330;SDS011;3706;49.198;7.064;2024-02-15T15:57:55;2.27;;;1.63;;
7330;SDS011;3706;49.198;7.064;2024-02-15T16:00:24;4.67;;;1.50;;